Downloads

-JavaCPC -demo -emu -j-cpc_ani -tools 0-9 A B C D E F G H I J K L M N O P Q R S T U V W X Y Z ZZZ_UNK roms
FILEDATESIZEDLs
KTris by Richard Wilson (PD).zip 2017-04-21 16:14 2 Kb9
Kaiser (G) (19xx).zip 2017-04-21 16:13 91 Kb9
Kane & Nebulus & Renaud - Marche a l'Ombre.zip 2017-04-21 16:13 95 Kb4
Kane (UK) (1986).zip 2017-04-21 16:13 28 Kb7
Kane (UK) (1986) [a1].zip 2017-04-21 16:13 80 Kb13
Kane (UK) (1986) [a2].zip 2017-04-21 16:13 38 Kb9
Kane (UK) (1986) [t1].zip 2017-04-21 16:13 38 Kb9
Karateka (F) (1986).zip 2017-04-21 16:13 50 Kb10
Karateka (F) (1986) [f1].zip 2017-04-21 16:13 50 Kb10
Karateka (F) (1986) [t1].zip 2017-04-21 16:13 50 Kb8
Karateka (F) (1990).zip 2017-04-21 16:13 49 Kb9
Karateka (F) (1990) [t1].zip 2017-04-21 16:13 49 Kb9
Karateka (F).dsk 2017-04-21 16:13 192 Kb13
Karl's Treasure Hunt (UK) (1984).zip 2017-04-21 16:13 11 Kb8
Karl's Treasure Hunt (UK) (1984) [a1].zip 2017-04-21 16:13 84 Kb9
Karl's Treasure Hunt (UK) (1984) [a2].zip 2017-04-21 16:13 11 Kb10
Karnov (E) - Disk 1A.dsk 2017-04-21 16:13 214 Kb12
Karnov (E) - Disk 1B.dsk 2017-04-21 16:13 214 Kb10
Karnov (UK) (1988) (Disk 1 of 2).zip 2017-04-21 16:13 73 Kb10
Karnov (UK) (1988) (Disk 1 of 2) [a1].zip 2017-04-21 16:13 56 Kb8
Karnov (UK) (1988) (Disk 1 of 2) [t1].zip 2017-04-21 16:13 159 Kb11
Karnov (UK) (1988) (Disk 1 of 2) [t2].zip 2017-04-21 16:13 73 Kb10
Karnov (UK) (1988) (Disk 2 of 2).zip 2017-04-21 16:13 62 Kb9
Karnov (UK) (1988) (Disk 2 of 2) [a1].zip 2017-04-21 16:13 105 Kb10
Karnov (UK) (1988) (Disk 2 of 2) [t2].zip 2017-04-21 16:13 62 Kb10
Kat Trap (E).dsk 2017-04-21 16:13 91 Kb12
Kat Trap (UK) (1987).zip 2017-04-21 16:13 34 Kb9
Keep Yourself Alive (F) (1987).zip 2017-04-21 16:13 19 Kb12
Kenny Dalglish Soccer Manager (E).cdt 2017-04-21 16:13 57 Kb12
Kenny Dalglish Soccer Manager (UK) (1989).zip 2017-04-21 16:13 25 Kb11
Kenny Dalglish Soccer Match (UK) (1990).zip 2017-04-21 16:13 29 Kb11
Kentilla (UK) (1985).zip 2017-04-21 16:13 23 Kb11
Kentilla (UK) (1985) [a1].zip 2017-04-21 16:13 30 Kb10
Kentucky Racing (E).cdt 2017-04-21 16:13 45 Kb12
Kentucky Racing (UK) (1990).zip 2017-04-21 16:13 24 Kb10
Kentucky Racing (UK) (1990) [f1].zip 2017-04-21 16:13 24 Kb11
Kessia (F) (19xx).zip 2017-04-21 16:13 72 Kb10
Kettle (E).dsk 2017-04-21 16:13 193 Kb11
Kettle (UK) (1986).zip 2017-04-21 16:13 21 Kb11
Kevin Thacker's CPC Guide (UK) (19xx) (PD) (Disk 1 of 2).zip 2017-04-21 16:13 47 Kb10
Kevin Thacker's CPC Guide (UK) (19xx) (PD) (Disk 2 of 2).zip 2017-04-21 16:13 41 Kb10
Key Factor, The (UK) (1985).zip 2017-04-21 16:13 13 Kb12
Kick Off (UK,F,G,S,I) (1990).zip 2017-04-21 16:13 27 Kb10
Kick Off (UK,F,G,S,I) (1990) [a1].zip 2017-04-21 16:13 131 Kb10
Kick Off (UK,F,G,S,I) (1990) [a2].zip 2017-04-21 16:13 31 Kb12
Kick Off 2 (E) - Disk 1A.dsk 2017-04-21 16:13 178 Kb10
Kick Off 2 (E) - Disk 1B.dsk 2017-04-21 16:13 178 Kb11
Kick Off 2 (F) (1990).zip 2017-04-21 16:13 68 Kb11
Kick Off 2 (F) (1990) [a1].zip 2017-04-21 16:13 68 Kb12
Kikstart II (UK) (1988).zip 2017-04-21 16:13 24 Kb10
Kikstart II (UK) (1988) [a1].zip 2017-04-21 16:13 23 Kb10
Killapede (UK) (1986).zip 2017-04-21 16:13 26 Kb10
Killapede (UK) (1986) [a1].zip 2017-04-21 16:13 26 Kb10
Killapede (UK) (1986) [a2].zip 2017-04-21 16:13 32 Kb9
Killapede (UK) (1986) [a3].zip 2017-04-21 16:13 30 Kb9
Killed Until Dead (UK) (1987) (Disk 1 of 2).zip 2017-04-21 16:13 50 Kb9
Killed Until Dead (UK) (1987) (Disk 2 of 2).zip 2017-04-21 16:13 62 Kb10
Killer Ball (UK) (1991).zip 2017-04-21 16:14 103 Kb9
Killer Ball (UK) (1991) [a1].zip 2017-04-21 16:13 103 Kb9
Killer Ball (UK) (1991) [a2].zip 2017-04-21 16:13 76 Kb10
Killer Ball (UK) (1991) [a3].zip 2017-04-21 16:13 96 Kb9
Killer Cobra (E).cdt 2017-04-21 16:14 49 Kb12
Killer Cobra (UK) (1987).zip 2017-04-21 16:14 27 Kb10
Killer Cobra (UK) (1987) [a1].zip 2017-04-21 16:14 27 Kb9
Killer Cobra (UK) (1987) [a2].zip 2017-04-21 16:14 31 Kb10
Killer Gorilla & Knight Lore & Laserwarp & Molecule Man & Zaxx (F).zip 2017-04-21 16:14 82 Kb3
Killer Gorilla (UK) (1984).zip 2017-04-21 16:14 19 Kb10
Killer Gorilla (UK) (1984) [a1].zip 2017-04-21 16:14 19 Kb10
Killer Gorilla (UK) (1984) [a2].zip 2017-04-21 16:14 15 Kb10
Killer Gorilla (UK) (1984) [a3].zip 2017-04-21 16:14 18 Kb11
Killer Gorilla (UK) (1984) [b1].zip 2017-04-21 16:14 19 Kb10
Killer Gorilla (UK) (1984) [b2].zip 2017-04-21 16:14 19 Kb11
Killer Ring (UK) (1987).zip 2017-04-21 16:14 16 Kb12
Killer Ring (UK) (1987) [a1].zip 2017-04-21 16:14 16 Kb11
Kiloroid (UK) (19xx).zip 2017-04-21 16:14 2 Kb10
Kim (F) (1986).zip 2017-04-21 16:14 9 Kb10
Kinetic (UK) (1987).zip 2017-04-21 16:14 35 Kb10
Kinetic (UK) (1987) [a1].zip 2017-04-21 16:14 36 Kb11
Kinetic (UK) (1987) [a2].zip 2017-04-21 16:14 35 Kb12
Kinetik (E).dsk 2017-04-21 16:14 195 Kb14
Kingdom of Hamil (UK) (1987).zip 2017-04-21 16:14 57 Kb10
Kingdoms (UK) (1985).zip 2017-04-21 16:14 5 Kb10
Kit de Telechargement - Telecharge Amstrad CPC (F).dsk 2017-04-21 16:14 217 Kb12
Kit de Telechargement pour Amstrad CPC (F).dsk 2017-04-21 16:14 191 Kb27
Klax & Meynaumede (F) & Nervous Break Down (F) & Skweek.zip 2017-04-21 16:14 97 Kb5
Klax (E).dsk 2017-04-21 16:14 172 Kb10
Klax (UK) (1990) (CPM).zip 2017-04-21 16:14 44 Kb9
Klax (UK) (1990) (CPM) [a1].zip 2017-04-21 16:14 44 Kb13
Klax (UK) (1990) (CPM Version).zip 2017-04-21 16:14 43 Kb9
Klax (UK) (1990) (CPM Version) [a1].zip 2017-04-21 16:14 43 Kb11
Klax (UK) (1990) (Cart).zip 2017-04-21 16:14 41 Kb10
Klax (UK) (1990).zip 2017-04-21 16:14 42 Kb10
Klax (UK) (1990) [a1].zip 2017-04-21 16:14 42 Kb13
Klax (UK) (1990) [h1].zip 2017-04-21 16:14 52 Kb9
Klax (UK) (1990) [h2].zip 2017-04-21 16:14 54 Kb13
Knaves and thou Prisoners (UK) (19xx).zip 2017-04-21 16:14 8 Kb11
Knight Force (F) (1989) (Disk 1 of 2).zip 2017-04-21 16:14 54 Kb10
Knight Force (F) (1989) (Disk 1 of 2) [t1].zip 2017-04-21 16:14 55 Kb9
Knight Force (F) (1989) (Disk 1 of 2) [t2] & Power Drift.zip 2017-04-21 16:14 108 Kb3
Knight Force (F) (1989) (Disk 1 of 2) [t2].zip 2017-04-21 16:14 75 Kb10
Knight Force (F) (1989) (Disk 2 of 2).zip 2017-04-21 16:14 76 Kb10
Knight Force (F) - Disk 1A.dsk 2017-04-21 16:14 456 Kb12
Knight Force (F) - Disk 1B.dsk 2017-04-21 16:14 627 Kb12
Knight Games (E) - Side A.cdt 2017-04-21 16:14 166 Kb12
Knight Games (E) - Side B.cdt 2017-04-21 16:14 142 Kb11
Knight Games (UK) (1986) (Disk 1 of 2).zip 2017-04-21 16:14 88 Kb9
Knight Games (UK) (1986) (Disk 1 of 2) [a1].zip 2017-04-21 16:14 83 Kb10
Knight Games (UK) (1986) (Disk 1 of 2) [a2].zip 2017-04-21 16:14 83 Kb12
Knight Games (UK) (1986) (Disk 1 of 2) [a3].zip 2017-04-21 16:14 103 Kb10
Knight Games (UK) (1986) (Disk 2 of 2).zip 2017-04-21 16:14 94 Kb10
Knight Games (UK) (1986) (Disk 2 of 2) [a1].zip 2017-04-21 16:14 76 Kb10
Knight Games (UK) (1986) (Disk 2 of 2) [a2].zip 2017-04-21 16:14 79 Kb9
Knight Games (UK) (1986) (Disk 2 of 2) [a3].zip 2017-04-21 16:14 109 Kb10
Knight Games (UK) (1986) [f1][t1].zip 2017-04-21 16:14 179 Kb10
Knight Lore (E).cdt 2017-04-21 16:14 42 Kb11
Knight Lore (UK) (1984).zip 2017-04-21 16:14 25 Kb9
Knight Lore (UK) (1984) [a1].zip 2017-04-21 16:14 25 Kb10
Knight Lore (UK) (1984) [a2].zip 2017-04-21 16:14 25 Kb10
Knight Moves (F) (19xx) (Disk 1 of 2).zip 2017-04-21 16:14 60 Kb10
Knight Moves (F) (19xx) (Disk 2 of 2).zip 2017-04-21 16:14 83 Kb10
Knight Orc (E) - Disk 1A.dsk 2017-04-21 16:14 194 Kb11
Knight Orc (E) - Disk 1B.dsk 2017-04-21 16:14 199 Kb12
Knight Orc (UK) (1987) (Disk 1 of 2).zip 2017-04-21 16:14 119 Kb11
Knight Orc (UK) (1987) (Disk 2 of 2).zip 2017-04-21 16:14 110 Kb10
Knight Rider (E).cdt 2017-04-21 16:14 45 Kb10
Knight Rider (UK) (1986).zip 2017-04-21 16:14 20 Kb9
Knight Rider (UK) (1986) [h1].zip 2017-04-21 16:14 32 Kb9
Knight Rider (UK) (1986) [h2].zip 2017-04-21 16:14 21 Kb12
Knight Tyme (E).cdt 2017-04-21 16:14 57 Kb11
Knight Tyme (UK) (1986).zip 2017-04-21 16:14 31 Kb11
Knight Tyme (UK) (1986) [a1].zip 2017-04-21 16:14 31 Kb12
Knight Tyme (UK) (1986) [t1].zip 2017-04-21 16:14 31 Kb9
Knightmare (E).dsk 2017-04-21 16:14 213 Kb12
Knightmare (UK) (1987).zip 2017-04-21 16:14 29 Kb10
Knightmare (UK) (1987) [a1].zip 2017-04-21 16:14 30 Kb10
Knightmare (UK) (1987) [a2].zip 2017-04-21 16:14 30 Kb9
Knightmare (UK) (1987) [t1].zip 2017-04-21 16:14 33 Kb9
Know (G).dsk 2017-04-21 16:14 192 Kb13
Kobayashi Naru (UK) (19xx).zip 2017-04-21 16:14 31 Kb9
Kobayashi Naru (UK) (1987).zip 2017-04-21 16:14 31 Kb11
Kobayashi Naru (UK) (1987) [a1].zip 2017-04-21 16:14 31 Kb11
Kobayashi Naru (UK) (1987) [a2].zip 2017-04-21 16:14 48 Kb11
Kokotoni Wilf (UK) (19xx).zip 2017-04-21 16:14 137 Kb10
Kokotoni Wilf (UK) (19xx) [a1].zip 2017-04-21 16:14 35 Kb9
Kokotoni Wilf (UK) (19xx) [f1][t1].zip 2017-04-21 16:14 37 Kb9
Konami's Golf (UK) (1986).zip 2017-04-21 16:14 24 Kb10
Konami's Golf (UK) (1986) [a1].zip 2017-04-21 16:14 24 Kb10
Konami's Golf (UK) (1986) [a2].zip 2017-04-21 16:14 26 Kb9
Konami Coin-op Hits (UK) (19xx) (Disk 1 of 2).zip 2017-04-21 16:14 50 Kb10
Konami Coin-op Hits (UK) (19xx) (Disk 1 of 2) [a1].zip 2017-04-21 16:14 50 Kb11
Konami Coin-op Hits (UK) (19xx) (Disk 2 of 2).zip 2017-04-21 16:14 65 Kb10
Konami Coin-op Hits (UK) (19xx) (Disk 2 of 2) [a1].zip 2017-04-21 16:14 65 Kb10
Konami Coin-op Hits (UK) (19xx) (Disk 2 of 2) [a2].zip 2017-04-21 16:14 65 Kb10
Kong Strikes Back (UK) (1985).zip 2017-04-21 16:14 21 Kb10
Kong Strikes Back (UK) (1985) [a1].zip 2017-04-21 16:14 21 Kb10
Kong Strikes Back (UK) (1985) [a2].zip 2017-04-21 16:14 23 Kb11
Koronis Rift (E).dsk 2017-04-21 16:14 186 Kb10
Koronis Rift (UK) (1987).zip 2017-04-21 16:14 57 Kb10
Krakout (E).cdt 2017-04-21 16:14 64 Kb12
Krakout (E).dsk 2017-04-21 16:14 171 Kb11
Krakout (UK) (1987).zip 2017-04-21 16:14 31 Kb10
Krakout (UK) (1987) [h1].zip 2017-04-21 16:14 34 Kb10
Kristal (F).dsk 2017-04-21 16:14 191 Kb11
Kristal (UK) (1985).zip 2017-04-21 16:14 16 Kb9
Kristax (UK) (1989).zip 2017-04-21 16:14 9 Kb10
Krypton Factor (UK) (1987) (Disk 1 of 2).zip 2017-04-21 16:14 52 Kb10
Krypton Factor (UK) (1987) (Disk 1 of 2) [a1].zip 2017-04-21 16:14 47 Kb10
Krypton Factor (UK) (1987) (Disk 2 of 2).zip 2017-04-21 16:14 5 Kb9
Krypton Factor (UK) (1987) (Disk 2 of 2) [a1].zip 2017-04-21 16:14 21 Kb13
Kung-Fu (UK) (1986).zip 2017-04-21 16:14 19 Kb10
Kung-Fu Master (E).dsk 2017-04-21 16:14 191 Kb8
Kung-Fu Master (UK) (1986).zip 2017-04-21 16:14 28 Kb9
Kung-Fu Master (UK) (1986) [h1].zip 2017-04-21 16:14 22 Kb11
Kwah (UK) (1987).zip 2017-04-21 16:14 36 Kb9
Kwik Snax (E).cdt 2017-04-21 16:14 65 Kb18
Kwik Snax (UK) (1990).zip 2017-04-21 16:14 22 Kb9
Kwik Snax (UK) (1990) [f1].zip 2017-04-21 16:14 33 Kb10
Kwik Snax (UK) (1990) [h1].zip 2017-04-21 16:14 41 Kb10
Kwik Snax (UK) (1990) [t1].zip 2017-04-21 16:14 33 Kb9
kobayashi Naru (E).cdt 2017-04-21 16:14 74 Kb11
180 Files
-JavaCPC -demo -emu -j-cpc_ani -tools 0-9 A B C D E F G H I J K L M N O P Q R S T U V W X Y Z ZZZ_UNK roms